sensor_id;sensor_type;location;lat;lon;timestamp;temperature;humidity
17827;DHT22;9038;48.208;16.308;2024-02-26T00:00:23;8.90;99.90
17827;DHT22;9038;48.208;16.308;2024-02-26T00:02:25;8.90;99.90
17827;DHT22;9038;48.208;16.308;2024-02-26T00:04:27;8.80;99.90
17827;DHT22;9038;48.208;16.308;2024-02-26T00:06:29;8.80;99.90
17827;DHT22;9038;48.208;16.308;2024-02-26T00:08:31;8.80;99.90
17827;DHT22;9038;48.208;16.308;2024-02-26T00:10:33;8.80;99.90
17827;DHT22;9038;48.208;16.308;2024-02-26T00:12:33;8.80;99.90
17827;DHT22;9038;48.208;16.308;2024-02-26T00:14:37;8.80;99.90
17827;DHT22;9038;48.208;16.308;2024-02-26T00:16:40;8.70;99.90
17827;DHT22;9038;48.208;16.308;2024-02-26T00:18:41;8.70;99.90
17827;DHT22;9038;48.208;16.308;2024-02-26T00:20:43;8.70;99.90
17827;DHT22;9038;48.208;16.308;2024-02-26T00:22:45;8.70;99.90
17827;DHT22;9038;48.208;16.308;2024-02-26T00:24:47;8.70;99.90
17827;DHT22;9038;48.208;16.308;2024-02-26T00:26:49;8.60;99.90
17827;DHT22;9038;48.208;16.308;2024-02-26T00:28:54;8.60;99.90
17827;DHT22;9038;48.208;16.308;2024-02-26T00:30:58;8.50;99.90
17827;DHT22;9038;48.208;16.308;2024-02-26T00:32:59;8.50;99.90
17827;DHT22;9038;48.208;16.308;2024-02-26T00:35:01;8.50;99.90
17827;DHT22;9038;48.208;16.308;2024-02-26T00:37:03;8.50;99.90
17827;DHT22;9038;48.208;16.308;2024-02-26T00:39:05;8.40;99.90
17827;DHT22;9038;48.208;16.308;2024-02-26T00:41:08;8.40;99.90
17827;DHT22;9038;48.208;16.308;2024-02-26T00:43:10;8.40;99.90
17827;DHT22;9038;48.208;16.308;2024-02-26T00:45:12;8.30;99.90
17827;DHT22;9038;48.208;16.308;2024-02-26T00:47:15;8.30;99.90
17827;DHT22;9038;48.208;16.308;2024-02-26T00:49:17;8.30;99.90
17827;DHT22;9038;48.208;16.308;2024-02-26T00:51:19;8.30;99.90
17827;DHT22;9038;48.208;16.308;2024-02-26T00:53:20;8.30;99.90
17827;DHT22;9038;48.208;16.308;2024-02-26T00:55:22;8.20;99.90
17827;DHT22;9038;48.208;16.308;2024-02-26T00:57:24;8.20;99.90
17827;DHT22;9038;48.208;16.308;2024-02-26T00:59:26;8.10;99.90
17827;DHT22;9038;48.208;16.308;2024-02-26T01:01:28;8.10;99.90
17827;DHT22;9038;48.208;16.308;2024-02-26T01:03:32;8.10;99.90
17827;DHT22;9038;48.208;16.308;2024-02-26T01:05:33;8.10;99.90
17827;DHT22;9038;48.208;16.308;2024-02-26T01:07:35;8.10;99.90
17827;DHT22;9038;48.208;16.308;2024-02-26T01:09:37;8.10;99.90
17827;DHT22;9038;48.208;16.308;2024-02-26T01:11:39;8.10;99.90
17827;DHT22;9038;48.208;16.308;2024-02-26T01:13:39;8.00;99.90
17827;DHT22;9038;48.208;16.308;2024-02-26T01:15:41;8.00;99.90
17827;DHT22;9038;48.208;16.308;2024-02-26T01:17:44;8.00;99.90
17827;DHT22;9038;48.208;16.308;2024-02-26T01:19:47;8.00;99.90
17827;DHT22;9038;48.208;16.308;2024-02-26T01:21:49;8.00;99.90
17827;DHT22;9038;48.208;16.308;2024-02-26T01:23:51;8.00;99.90
17827;DHT22;9038;48.208;16.308;2024-02-26T01:25:53;8.00;99.90
17827;DHT22;9038;48.208;16.308;2024-02-26T01:27:54;7.90;99.90
17827;DHT22;9038;48.208;16.308;2024-02-26T01:29:56;7.90;99.90
17827;DHT22;9038;48.208;16.308;2024-02-26T01:31:58;7.90;99.90
17827;DHT22;9038;48.208;16.308;2024-02-26T01:34:00;7.90;99.90
17827;DHT22;9038;48.208;16.308;2024-02-26T01:36:04;7.90;99.90
17827;DHT22;9038;48.208;16.308;2024-02-26T01:38:06;7.90;99.90
17827;DHT22;9038;48.208;16.308;2024-02-26T01:40:07;7.90;99.90
17827;DHT22;9038;48.208;16.308;2024-02-26T01:42:10;7.90;99.90
17827;DHT22;9038;48.208;16.308;2024-02-26T01:44:12;7.90;99.90
17827;DHT22;9038;48.208;16.308;2024-02-26T01:46:14;7.90;99.90
17827;DHT22;9038;48.208;16.308;2024-02-26T01:48:17;7.90;99.90
17827;DHT22;9038;48.208;16.308;2024-02-26T01:50:19;7.90;99.90
17827;DHT22;9038;48.208;16.308;2024-02-26T01:52:22;7.90;99.90
17827;DHT22;9038;48.208;16.308;2024-02-26T01:54:24;7.90;99.90
17827;DHT22;9038;48.208;16.308;2024-02-26T01:56:27;7.90;99.90
17827;DHT22;9038;48.208;16.308;2024-02-26T01:58:32;7.90;99.90
17827;DHT22;9038;48.208;16.308;2024-02-26T02:00:36;7.80;99.90
17827;DHT22;9038;48.208;16.308;2024-02-26T02:02:38;7.80;99.90
17827;DHT22;9038;48.208;16.308;2024-02-26T02:04:42;7.80;99.90
17827;DHT22;9038;48.208;16.308;2024-02-26T02:06:45;7.80;99.90
17827;DHT22;9038;48.208;16.308;2024-02-26T02:08:48;7.80;99.90
17827;DHT22;9038;48.208;16.308;2024-02-26T02:10:50;7.80;99.90
17827;DHT22;9038;48.208;16.308;2024-02-26T02:12:52;7.80;99.90
17827;DHT22;9038;48.208;16.308;2024-02-26T02:14:54;7.80;99.90
17827;DHT22;9038;48.208;16.308;2024-02-26T02:16:56;7.80;99.90
17827;DHT22;9038;48.208;16.308;2024-02-26T02:18:58;7.90;99.90
17827;DHT22;9038;48.208;16.308;2024-02-26T02:21:02;7.90;99.90
17827;DHT22;9038;48.208;16.308;2024-02-26T02:23:04;7.80;99.90
17827;DHT22;9038;48.208;16.308;2024-02-26T02:25:06;7.80;99.90
17827;DHT22;9038;48.208;16.308;2024-02-26T02:27:08;7.80;99.90
17827;DHT22;9038;48.208;16.308;2024-02-26T02:29:10;7.80;99.90
17827;DHT22;9038;48.208;16.308;2024-02-26T02:31:13;7.80;99.90
17827;DHT22;9038;48.208;16.308;2024-02-26T02:33:15;7.80;99.90
17827;DHT22;9038;48.208;16.308;2024-02-26T02:35:17;7.80;99.90
17827;DHT22;9038;48.208;16.308;2024-02-26T02:37:20;7.80;99.90
17827;DHT22;9038;48.208;16.308;2024-02-26T02:39:22;7.80;99.90
17827;DHT22;9038;48.208;16.308;2024-02-26T02:41:24;7.80;99.90
17827;DHT22;9038;48.208;16.308;2024-02-26T02:43:27;7.80;99.90
17827;DHT22;9038;48.208;16.308;2024-02-26T02:45:29;7.70;99.90
17827;DHT22;9038;48.208;16.308;2024-02-26T02:47:31;7.70;99.90
17827;DHT22;9038;48.208;16.308;2024-02-26T02:49:32;7.60;99.90
17827;DHT22;9038;48.208;16.308;2024-02-26T02:51:34;7.60;99.90
17827;DHT22;9038;48.208;16.308;2024-02-26T02:53:37;7.60;99.90
17827;DHT22;9038;48.208;16.308;2024-02-26T02:55:39;7.60;99.90
17827;DHT22;9038;48.208;16.308;2024-02-26T02:57:41;7.50;99.90
17827;DHT22;9038;48.208;16.308;2024-02-26T02:59:43;7.50;99.90
17827;DHT22;9038;48.208;16.308;2024-02-26T03:01:45;7.50;99.90
17827;DHT22;9038;48.208;16.308;2024-02-26T03:03:47;7.40;99.90
17827;DHT22;9038;48.208;16.308;2024-02-26T03:05:48;7.40;99.90
17827;DHT22;9038;48.208;16.308;2024-02-26T03:07:49;7.40;99.90
17827;DHT22;9038;48.208;16.308;2024-02-26T03:09:53;7.30;99.90
17827;DHT22;9038;48.208;16.308;2024-02-26T03:11:53;7.30;99.90
17827;DHT22;9038;48.208;16.308;2024-02-26T03:13:55;7.30;99.90
17827;DHT22;9038;48.208;16.308;2024-02-26T03:15:56;7.30;99.90
17827;DHT22;9038;48.208;16.308;2024-02-26T03:17:58;7.30;99.90
17827;DHT22;9038;48.208;16.308;2024-02-26T03:20:00;7.20;99.90
17827;DHT22;9038;48.208;16.308;2024-02-26T03:22:04;7.20;99.90
17827;DHT22;9038;48.208;16.308;2024-02-26T03:24:06;7.20;99.90
17827;DHT22;9038;48.208;16.308;2024-02-26T03:26:12;7.20;99.90
17827;DHT22;9038;48.208;16.308;2024-02-26T03:28:15;7.20;99.90
17827;DHT22;9038;48.208;16.308;2024-02-26T03:30:16;7.30;99.90
17827;DHT22;9038;48.208;16.308;2024-02-26T03:32:18;7.30;99.90
17827;DHT22;9038;48.208;16.308;2024-02-26T03:34:19;7.30;99.90
17827;DHT22;9038;48.208;16.308;2024-02-26T03:36:21;7.30;99.90
17827;DHT22;9038;48.208;16.308;2024-02-26T03:38:23;7.40;99.90
17827;DHT22;9038;48.208;16.308;2024-02-26T03:40:25;7.40;99.90
17827;DHT22;9038;48.208;16.308;2024-02-26T03:42:28;7.40;99.90
17827;DHT22;9038;48.208;16.308;2024-02-26T03:44:29;7.40;99.90
17827;DHT22;9038;48.208;16.308;2024-02-26T03:46:31;7.50;99.90
17827;DHT22;9038;48.208;16.308;2024-02-26T03:48:33;7.50;99.90
17827;DHT22;9038;48.208;16.308;2024-02-26T03:50:33;7.50;99.90
17827;DHT22;9038;48.208;16.308;2024-02-26T03:52:35;7.50;99.90
17827;DHT22;9038;48.208;16.308;2024-02-26T03:54:37;7.50;99.90
17827;DHT22;9038;48.208;16.308;2024-02-26T03:56:39;7.50;99.90
17827;DHT22;9038;48.208;16.308;2024-02-26T03:58:57;7.40;99.90
17827;DHT22;9038;48.208;16.308;2024-02-26T04:01:02;7.40;99.90
17827;DHT22;9038;48.208;16.308;2024-02-26T04:03:04;7.40;99.90
17827;DHT22;9038;48.208;16.308;2024-02-26T04:05:09;7.40;99.90
17827;DHT22;9038;48.208;16.308;2024-02-26T04:07:11;7.40;99.90
17827;DHT22;9038;48.208;16.308;2024-02-26T04:09:14;7.40;99.90
17827;DHT22;9038;48.208;16.308;2024-02-26T04:11:16;7.40;99.90
17827;DHT22;9038;48.208;16.308;2024-02-26T04:13:19;7.50;99.90
17827;DHT22;9038;48.208;16.308;2024-02-26T04:15:23;7.40;99.90
17827;DHT22;9038;48.208;16.308;2024-02-26T04:17:24;7.40;99.90
17827;DHT22;9038;48.208;16.308;2024-02-26T04:19:26;7.40;99.90
17827;DHT22;9038;48.208;16.308;2024-02-26T04:21:27;7.40;99.90
17827;DHT22;9038;48.208;16.308;2024-02-26T04:23:28;7.30;99.90
17827;DHT22;9038;48.208;16.308;2024-02-26T04:25:30;7.30;99.90
17827;DHT22;9038;48.208;16.308;2024-02-26T04:27:31;7.30;99.90
17827;DHT22;9038;48.208;16.308;2024-02-26T04:29:33;7.20;99.90
17827;DHT22;9038;48.208;16.308;2024-02-26T04:31:37;7.30;99.90
17827;DHT22;9038;48.208;16.308;2024-02-26T04:33:40;7.20;99.90
17827;DHT22;9038;48.208;16.308;2024-02-26T04:35:42;7.30;99.90
17827;DHT22;9038;48.208;16.308;2024-02-26T04:37:44;7.30;99.90
17827;DHT22;9038;48.208;16.308;2024-02-26T04:39:46;7.30;99.90
17827;DHT22;9038;48.208;16.308;2024-02-26T04:41:48;7.30;99.90
17827;DHT22;9038;48.208;16.308;2024-02-26T04:43:50;7.30;99.90
17827;DHT22;9038;48.208;16.308;2024-02-26T04:45:51;7.30;99.90
17827;DHT22;9038;48.208;16.308;2024-02-26T04:47:55;7.20;99.90
17827;DHT22;9038;48.208;16.308;2024-02-26T04:49:57;7.20;99.90
17827;DHT22;9038;48.208;16.308;2024-02-26T04:51:58;7.20;99.90
17827;DHT22;9038;48.208;16.308;2024-02-26T04:54:00;7.10;99.90
17827;DHT22;9038;48.208;16.308;2024-02-26T04:56:03;7.10;99.90
17827;DHT22;9038;48.208;16.308;2024-02-26T04:58:05;7.00;99.90
17827;DHT22;9038;48.208;16.308;2024-02-26T05:00:14;7.00;99.90
17827;DHT22;9038;48.208;16.308;2024-02-26T05:02:15;6.90;99.90
17827;DHT22;9038;48.208;16.308;2024-02-26T05:04:18;7.00;99.90
17827;DHT22;9038;48.208;16.308;2024-02-26T05:06:20;6.90;99.90
17827;DHT22;9038;48.208;16.308;2024-02-26T05:08:22;6.90;99.90
17827;DHT22;9038;48.208;16.308;2024-02-26T05:10:24;6.90;99.90
17827;DHT22;9038;48.208;16.308;2024-02-26T05:12:26;6.90;99.90
17827;DHT22;9038;48.208;16.308;2024-02-26T05:14:26;6.80;99.90
17827;DHT22;9038;48.208;16.308;2024-02-26T05:16:28;6.80;99.90
17827;DHT22;9038;48.208;16.308;2024-02-26T05:18:31;6.80;99.90
17827;DHT22;9038;48.208;16.308;2024-02-26T05:20:34;6.80;99.90
17827;DHT22;9038;48.208;16.308;2024-02-26T05:22:38;6.80;99.90
17827;DHT22;9038;48.208;16.308;2024-02-26T05:24:39;6.80;99.90
17827;DHT22;9038;48.208;16.308;2024-02-26T05:26:41;6.90;99.90
17827;DHT22;9038;48.208;16.308;2024-02-26T05:28:43;6.90;99.90
17827;DHT22;9038;48.208;16.308;2024-02-26T05:30:45;6.90;99.90
17827;DHT22;9038;48.208;16.308;2024-02-26T05:32:47;6.90;99.90
17827;DHT22;9038;48.208;16.308;2024-02-26T05:34:48;7.00;99.90
17827;DHT22;9038;48.208;16.308;2024-02-26T05:36:52;7.00;99.90
17827;DHT22;9038;48.208;16.308;2024-02-26T05:38:53;7.00;99.90
17827;DHT22;9038;48.208;16.308;2024-02-26T05:40:55;7.00;99.90
17827;DHT22;9038;48.208;16.308;2024-02-26T05:42:57;7.00;99.90
17827;DHT22;9038;48.208;16.308;2024-02-26T05:44:59;7.00;99.90
17827;DHT22;9038;48.208;16.308;2024-02-26T05:47:00;7.00;99.90
17827;DHT22;9038;48.208;16.308;2024-02-26T05:49:02;7.00;99.90
17827;DHT22;9038;48.208;16.308;2024-02-26T05:51:04;7.00;99.90
17827;DHT22;9038;48.208;16.308;2024-02-26T05:53:08;6.90;99.90
17827;DHT22;9038;48.208;16.308;2024-02-26T05:55:10;6.90;99.90
17827;DHT22;9038;48.208;16.308;2024-02-26T05:57:13;6.90;99.90
17827;DHT22;9038;48.208;16.308;2024-02-26T05:59:20;6.90;99.90
17827;DHT22;9038;48.208;16.308;2024-02-26T06:01:22;7.00;99.90
17827;DHT22;9038;48.208;16.308;2024-02-26T06:03:24;7.00;99.90
17827;DHT22;9038;48.208;16.308;2024-02-26T06:05:26;7.00;99.90
17827;DHT22;9038;48.208;16.308;2024-02-26T06:07:28;7.10;99.90
17827;DHT22;9038;48.208;16.308;2024-02-26T06:09:31;7.10;99.90
17827;DHT22;9038;48.208;16.308;2024-02-26T06:11:33;7.20;99.90
17827;DHT22;9038;48.208;16.308;2024-02-26T06:13:35;7.30;99.90
17827;DHT22;9038;48.208;16.308;2024-02-26T06:15:37;7.30;99.90
17827;DHT22;9038;48.208;16.308;2024-02-26T06:17:39;7.40;99.90
17827;DHT22;9038;48.208;16.308;2024-02-26T06:19:41;7.50;99.90
17827;DHT22;9038;48.208;16.308;2024-02-26T06:21:43;7.60;99.90
17827;DHT22;9038;48.208;16.308;2024-02-26T06:23:45;7.80;99.90
17827;DHT22;9038;48.208;16.308;2024-02-26T06:25:48;8.20;99.90
17827;DHT22;9038;48.208;16.308;2024-02-26T06:27:50;8.60;99.90
17827;DHT22;9038;48.208;16.308;2024-02-26T06:29:51;9.10;99.90
17827;DHT22;9038;48.208;16.308;2024-02-26T06:31:54;9.50;99.90
17827;DHT22;9038;48.208;16.308;2024-02-26T06:33:56;9.90;99.90
17827;DHT22;9038;48.208;16.308;2024-02-26T06:35:58;10.20;99.90
17827;DHT22;9038;48.208;16.308;2024-02-26T06:38:00;10.70;99.90
17827;DHT22;9038;48.208;16.308;2024-02-26T06:40:02;11.10;99.90
17827;DHT22;9038;48.208;16.308;2024-02-26T06:42:08;11.50;99.90
17827;DHT22;9038;48.208;16.308;2024-02-26T06:44:10;12.00;99.90
17827;DHT22;9038;48.208;16.308;2024-02-26T06:46:11;12.40;99.90
17827;DHT22;9038;48.208;16.308;2024-02-26T06:48:13;12.90;99.90
17827;DHT22;9038;48.208;16.308;2024-02-26T06:50:15;13.30;99.90
17827;DHT22;9038;48.208;16.308;2024-02-26T06:52:17;13.60;99.90
17827;DHT22;9038;48.208;16.308;2024-02-26T06:54:19;14.00;99.90
17827;DHT22;9038;48.208;16.308;2024-02-26T06:56:21;14.30;99.90
17827;DHT22;9038;48.208;16.308;2024-02-26T06:58:24;14.70;99.90
17827;DHT22;9038;48.208;16.308;2024-02-26T07:00:26;15.10;99.90
17827;DHT22;9038;48.208;16.308;2024-02-26T07:02:28;15.40;99.90
17827;DHT22;9038;48.208;16.308;2024-02-26T07:04:30;15.70;99.90
17827;DHT22;9038;48.208;16.308;2024-02-26T07:06:34;15.80;99.90
17827;DHT22;9038;48.208;16.308;2024-02-26T07:08:36;15.90;99.90
17827;DHT22;9038;48.208;16.308;2024-02-26T07:10:37;16.10;99.90
17827;DHT22;9038;48.208;16.308;2024-02-26T07:12:39;16.30;99.90
17827;DHT22;9038;48.208;16.308;2024-02-26T07:14:42;16.40;99.90
17827;DHT22;9038;48.208;16.308;2024-02-26T07:30:59;18.90;94.80
17827;DHT22;9038;48.208;16.308;2024-02-26T07:33:01;18.90;94.30
17827;DHT22;9038;48.208;16.308;2024-02-26T07:35:03;19.10;93.30
17827;DHT22;9038;48.208;16.308;2024-02-26T07:37:05;18.60;92.30
17827;DHT22;9038;48.208;16.308;2024-02-26T07:39:07;18.60;92.80
17827;DHT22;9038;48.208;16.308;2024-02-26T07:41:09;18.70;99.90
17827;DHT22;9038;48.208;16.308;2024-02-26T07:43:10;19.20;99.90
17827;DHT22;9038;48.208;16.308;2024-02-26T07:45:12;19.20;99.90
17827;DHT22;9038;48.208;16.308;2024-02-26T07:47:17;19.00;99.90
17827;DHT22;9038;48.208;16.308;2024-02-26T07:49:19;19.00;99.90
17827;DHT22;9038;48.208;16.308;2024-02-26T07:51:21;18.80;99.90
17827;DHT22;9038;48.208;16.308;2024-02-26T07:59:28;18.70;99.90
17827;DHT22;9038;48.208;16.308;2024-02-26T23:44:27;11.20;87.90
17827;DHT22;9038;48.208;16.308;2024-02-26T23:46:32;11.20;88.50
17827;DHT22;9038;48.208;16.308;2024-02-26T23:48:36;11.20;88.90
17827;DHT22;9038;48.208;16.308;2024-02-26T23:50:37;11.10;87.70
17827;DHT22;9038;48.208;16.308;2024-02-26T23:52:39;11.00;88.30
17827;DHT22;9038;48.208;16.308;2024-02-26T23:54:41;11.00;90.40
17827;DHT22;9038;48.208;16.308;2024-02-26T23:56:44;11.00;89.30
17827;DHT22;9038;48.208;16.308;2024-02-26T23:58:46;11.00;88.30
